»·PEaware :: N515SL KCNO-KMMH

N515SL :: KCNO-KMMH

FLIGHT INFORMATION

Flight Status: Arrived
Operator: Privately registered:
United States
More flights under this callsign
Pilot: Doug L. (8712)
Aircraft: ROCKWELL 690 TURBO COMMANDER
(AC90)
More flights by this aircraft type
Origin: KCNO Chino
United States
Destination: KMMH Mammoth Yosemite
United States
More flights between these airports :: More routes between these airports
Route: +
File this flight plan on PilotEdge
Remarks:
Altitude:
(Current/Filed)
16,500ft
Speed:
(Current/Filed)
220kts
Departed: 29-Dec-18 11:49 AM
Arrived: 29-Dec-18 12:48 PM
Distance/Time
Traveled:
227nm/0:59
Distance/Time
To Go:
Arrived

Flight Plot

Page will automatically refresh every two minutes.

Flight plan parsing failed; only flown route is shown


Map Options




Map Legend


Flown Route
Filed Route
Departure Airport
Arrival Airport
Navaid (VOR, NDB)
Fix

Horizontal Profiles

Position Reports

Time Latitude Longitude Heading Altitude Ground
Speed
29-Dec-18 11:40 33.978527 -117.635212 311 637ft 0kts
29-Dec-18 11:41 33.979041 -117.633731 43 641ft 9kts
29-Dec-18 11:42 33.977437 -117.630860 180 638ft 17kts
29-Dec-18 11:43 33.976884 -117.630841 177 637ft 1kts
29-Dec-18 11:44 33.976820 -117.630838 178 637ft 0kts
29-Dec-18 11:45 33.976820 -117.630838 178 637ft 0kts
29-Dec-18 11:46 33.976820 -117.630838 178 637ft 0kts
29-Dec-18 11:47 33.976220 -117.630831 185 636ft 8kts
29-Dec-18 11:48 33.976904 -117.666263 286 1547ft 163kts
29-Dec-18 11:49 34.015746 -117.691232 344 3794ft 167kts
29-Dec-18 11:50 34.061242 -117.707192 344 5890ft 165kts
29-Dec-18 11:51 34.101126 -117.721153 345 8636ft 149kts
29-Dec-18 11:52 34.137385 -117.743217 326 11031ft 153kts
29-Dec-18 11:53 34.170418 -117.776042 328 13350ft 157kts
29-Dec-18 11:54 34.203499 -117.808777 331 15842ft 156kts
29-Dec-18 11:55 34.241786 -117.845875 330 16530ft 223kts
29-Dec-18 11:56 34.293696 -117.897563 326 16496ft 255kts
29-Dec-18 11:57 34.348440 -117.951944 326 16496ft 256kts
29-Dec-18 11:58 34.403534 -118.006551 326 16513ft 256kts
29-Dec-18 11:59 34.458432 -118.061085 325 16523ft 256kts
29-Dec-18 12:00 34.513868 -118.116180 322 16525ft 261kts
29-Dec-18 12:01 34.570874 -118.172971 320 16536ft 269kts
29-Dec-18 12:02 34.628916 -118.230916 320 16511ft 273kts
29-Dec-18 12:03 34.687202 -118.289191 320 16515ft 274kts
29-Dec-18 12:04 34.745955 -118.348038 320 16517ft 274kts
29-Dec-18 12:05 34.804748 -118.407044 320 16505ft 274kts
29-Dec-18 12:06 34.863519 -118.466138 320 16478ft 275kts
29-Dec-18 12:08 34.922363 -118.525416 320 16447ft 275kts
29-Dec-18 12:09 34.981164 -118.584760 320 16435ft 274kts
29-Dec-18 12:10 35.039729 -118.643978 320 16435ft 274kts
29-Dec-18 12:11 35.096019 -118.701003 320 16449ft 273kts
29-Dec-18 12:12 35.164598 -118.725862 0 16465ft 273kts
29-Dec-18 12:13 35.240418 -118.724116 0 16492ft 273kts
29-Dec-18 12:14 35.316235 -118.723590 359 16492ft 273kts
29-Dec-18 12:15 35.392297 -118.723438 359 16492ft 273kts
29-Dec-18 12:16 35.468156 -118.723310 359 16492ft 273kts
29-Dec-18 12:17 35.544047 -118.723178 359 16494ft 273kts
29-Dec-18 12:18 35.619821 -118.723045 359 16506ft 273kts
29-Dec-18 12:19 35.695705 -118.722912 359 16518ft 273kts
29-Dec-18 12:20 35.771459 -118.722779 359 16527ft 273kts
29-Dec-18 12:21 35.847472 -118.722644 359 16536ft 273kts
29-Dec-18 12:22 35.923559 -118.722509 359 16536ft 273kts
29-Dec-18 12:23 35.999527 -118.722377 359 16536ft 273kts
29-Dec-18 12:24 36.075310 -118.722243 359 16527ft 274kts
29-Dec-18 12:25 36.150190 -118.722113 359 16527ft 274kts
29-Dec-18 12:26 36.226292 -118.721980 359 16527ft 274kts
29-Dec-18 12:27 36.302357 -118.721845 359 16527ft 274kts
29-Dec-18 12:27 36.365608 -118.721732 359 16527ft 274kts
29-Dec-18 12:29 36.454453 -118.721573 359 16527ft 274kts
29-Dec-18 12:29 36.517744 -118.721460 359 16525ft 274kts
29-Dec-18 12:31 36.606279 -118.721300 359 16518ft 274kts
29-Dec-18 12:31 36.669560 -118.721186 359 16512ft 274kts
29-Dec-18 12:33 36.758503 -118.721024 359 16498ft 274kts
29-Dec-18 12:33 36.821495 -118.720908 359 16499ft 274kts
29-Dec-18 12:34 36.897600 -118.720769 359 16490ft 274kts
29-Dec-18 12:35 36.973612 -118.720630 359 16490ft 274kts
29-Dec-18 12:36 37.049852 -118.720492 359 16490ft 274kts
29-Dec-18 12:37 37.123747 -118.709102 24 16534ft 272kts
29-Dec-18 12:38 37.193515 -118.667604 25 15500ft 286kts
29-Dec-18 12:39 37.263190 -118.625839 25 14155ft 274kts
29-Dec-18 12:40 37.333362 -118.603869 342 12799ft 269kts
29-Dec-18 12:41 37.406013 -118.622334 353 11509ft 267kts
29-Dec-18 12:42 37.478987 -118.632805 353 10469ft 256kts
29-Dec-18 12:43 37.540982 -118.658550 319 9777ft 228kts
29-Dec-18 12:44 37.580967 -118.706369 310 8985ft 174kts
29-Dec-18 12:45 37.601839 -118.757230 290 8121ft 156kts
29-Dec-18 12:46 37.614117 -118.803231 291 7554ft 112kts
29-Dec-18 12:47 37.623131 -118.835392 282 7095ft 36kts
29-Dec-18 12:48 37.625074 -118.839272 287 7107ft 17kts
29-Dec-18 12:49 37.626585 -118.843023 290 7116ft 9kts
29-Dec-18 12:50 37.626819 -118.843987 197 7118ft 2kts
29-Dec-18 12:51 37.626774 -118.844005 197 7119ft 0kts

Navigation Log

Ident Type
Flight plan parsing failed, navigation log unavailable